Time;durP1;ratioP1;P1;durP2;ratioP2;P2;SDS_P1;SDS_P2;PMS_P1;PMS_P2;Temp;Humidity;BMP_temperature;BMP_pressure;BME280_temperature;BME280_humidity;BME280_pressure;Samples;Min_cycle;Max_cycle;Signal;HPM_P1;HPM_P2
2023/03/25 00:00:17;;;;;;;12.00;2.63;;;9.60;99.90;;;;;;4903500;29;20043;-75
2023/03/25 00:02:49;;;;;;;9.85;2.45;;;9.50;99.90;;;;;;4889197;29;20046;-74
2023/03/25 00:05:17;;;;;;;8.80;1.90;;;9.60;99.90;;;;;;4937998;29;20043;-74
2023/03/25 00:07:44;;;;;;;8.00;2.10;;;9.60;99.90;;;;;;4937690;29;20081;-75
2023/03/25 00:10:12;;;;;;;10.68;2.28;;;9.60;99.90;;;;;;4905058;29;20051;-75
2023/03/25 00:12:39;;;;;;;9.48;2.42;;;9.50;99.90;;;;;;4922165;29;20114;-74
2023/03/25 00:15:06;;;;;;;8.43;2.25;;;9.60;99.90;;;;;;4937484;29;20043;-74
2023/03/25 00:17:32;;;;;;;7.35;2.25;;;9.60;99.90;;;;;;4937472;29;20070;-74
2023/03/25 00:19:59;;;;;;;8.27;2.22;;;9.60;99.90;;;;;;4910141;29;20086;-75
2023/03/25 00:22:25;;;;;;;10.75;1.85;;;9.60;99.90;;;;;;4896117;29;20079;-74
2023/03/25 00:24:51;;;;;;;9.75;1.95;;;9.60;99.90;;;;;;4918647;29;20051;-75
2023/03/25 00:27:16;;;;;;;7.38;1.83;;;9.50;99.90;;;;;;4918397;29;20102;-75
2023/03/25 00:29:43;;;;;;;7.20;2.40;;;9.40;99.90;;;;;;4901528;29;20058;-75
2023/03/25 00:32:10;;;;;;;7.32;2.20;;;9.40;99.90;;;;;;4901249;29;20036;-75
2023/03/25 00:34:40;;;;;;;7.20;2.20;;;9.40;99.90;;;;;;4902422;29;20035;-75
2023/03/25 00:37:08;;;;;;;7.65;2.40;;;9.40;99.90;;;;;;4902718;29;20035;-74
2023/03/25 00:39:34;;;;;;;6.60;2.55;;;9.40;99.90;;;;;;4917790;29;20063;-74
2023/03/25 00:42:00;;;;;;;8.77;1.90;;;9.40;99.90;;;;;;4904815;29;20114;-75
2023/03/25 00:44:26;;;;;;;7.78;2.60;;;9.30;99.90;;;;;;4921854;29;20039;-75
2023/03/25 00:46:52;;;;;;;6.75;2.40;;;9.30;99.90;;;;;;4902336;29;20490;-75
2023/03/25 00:49:17;;;;;;;7.18;2.50;;;9.20;99.90;;;;;;4901825;29;20040;-75
2023/03/25 00:51:44;;;;;;;8.32;2.38;;;9.10;99.90;;;;;;4907137;29;20479;-75
2023/03/25 00:54:10;;;;;;;8.35;2.45;;;9.10;99.90;;;;;;4927169;29;20079;-75
2023/03/25 00:56:36;;;;;;;9.05;3.15;;;9.00;99.90;;;;;;4934213;29;20070;-75
2023/03/25 00:59:02;;;;;;;10.77;3.00;;;9.00;99.90;;;;;;4938702;29;20039;-75
2023/03/25 01:01:28;;;;;;;8.93;3.20;;;9.00;99.90;;;;;;4915596;29;20122;-75
2023/03/25 01:03:58;;;;;;;8.07;2.92;;;8.90;99.90;;;;;;4912695;29;20047;-75
2023/03/25 01:06:33;;;;;;;10.73;2.78;;;8.90;99.90;;;;;;4937077;29;20043;-74
2023/03/25 01:09:01;;;;;;;6.47;2.22;;;8.90;99.90;;;;;;4941432;29;20164;-75
2023/03/25 01:11:29;;;;;;;11.55;2.78;;;8.90;99.90;;;;;;4916566;29;20043;-75
2023/03/25 01:13:56;;;;;;;7.10;2.63;;;8.90;99.90;;;;;;4922065;29;20486;-74
2023/03/25 01:16:22;;;;;;;11.90;2.97;;;8.90;99.90;;;;;;4917697;29;20043;-74
2023/03/25 01:18:47;;;;;;;11.60;3.15;;;9.00;99.90;;;;;;4898889;29;20073;-75
2023/03/25 01:21:13;;;;;;;11.50;3.60;;;8.90;99.90;;;;;;4894669;29;20048;-74
2023/03/25 01:23:39;;;;;;;13.10;3.92;;;8.90;99.90;;;;;;4934050;29;20084;-75
2023/03/25 01:26:05;;;;;;;10.45;3.45;;;8.80;99.90;;;;;;4931874;29;20078;-75
2023/03/25 01:28:31;;;;;;;12.93;3.25;;;8.70;99.90;;;;;;4909673;29;20130;-75
2023/03/25 01:31:05;;;;;;;9.35;3.08;;;8.60;99.90;;;;;;4907085;29;20570;-75
2023/03/25 01:33:31;;;;;;;12.00;3.22;;;8.60;99.90;;;;;;4932925;29;20098;-74
2023/03/25 01:36:01;;;;;;;13.73;3.53;;;8.50;99.90;;;;;;4920726;29;20428;-75
2023/03/25 01:38:27;;;;;;;11.82;3.28;;;8.40;99.90;;;;;;4935220;29;20051;-75
2023/03/25 01:40:54;;;;;;;13.55;3.40;;;8.30;99.90;;;;;;4914861;29;20040;-75
2023/03/25 01:43:20;;;;;;;17.02;4.65;;;8.20;99.90;;;;;;4895349;29;20036;-75
2023/03/25 01:45:46;;;;;;;10.38;3.40;;;8.30;99.90;;;;;;4898569;29;20040;-75
2023/03/25 01:48:27;;;;;;;16.13;4.85;;;8.20;99.90;;;;;;4882763;29;20406;-75
2023/03/25 01:51:05;;;;;;;13.18;3.70;;;8.20;99.90;;;;;;4894934;29;20057;-74
2023/03/25 01:53:32;;;;;;;10.38;3.67;;;8.10;99.90;;;;;;4920031;29;20043;-74
2023/03/25 01:56:01;;;;;;;16.27;4.55;;;8.10;99.90;;;;;;4928132;29;20070;-74
2023/03/25 01:58:30;;;;;;;15.32;3.80;;;8.20;99.90;;;;;;4904396;29;20119;-74
2023/03/25 02:00:56;;;;;;;16.50;4.30;;;8.10;99.90;;;;;;4905254;29;20035;-74
2023/03/25 02:03:23;;;;;;;13.75;4.18;;;8.10;99.90;;;;;;4909810;29;20096;-74
2023/03/25 02:06:02;;;;;;;14.82;4.28;;;8.00;99.90;;;;;;4921070;29;20039;-74
2023/03/25 02:08:31;;;;;;;12.73;4.00;;;8.10;99.90;;;;;;4916727;29;20060;-74
2023/03/25 02:10:58;;;;;;;15.43;4.35;;;8.00;99.90;;;;;;4923209;29;20038;-73
2023/03/25 02:13:24;;;;;;;11.40;3.83;;;8.00;99.90;;;;;;4949143;29;20398;-73
2023/03/25 02:16:01;;;;;;;16.02;4.30;;;7.90;99.90;;;;;;4900663;29;20451;-73
2023/03/25 02:18:44;;;;;;;14.88;3.65;;;8.00;99.90;;;;;;4901870;29;20051;-73
2023/03/25 02:21:19;;;;;;;;;;;8.00;99.90;;;;;;4914896;29;20043;-74
2023/03/25 02:24:12;;;;;;;13.63;4.38;;;8.00;99.90;;;;;;4924602;29;19919;-74
2023/03/25 02:27:25;;;;;;;17.23;4.22;;;8.00;99.90;;;;;;4908524;29;20040;-74
2023/03/25 02:30:30;;;;;;;13.20;4.07;;;8.00;99.90;;;;;;4914180;29;20411;-74
2023/03/25 02:33:15;;;;;;;15.02;4.07;;;8.00;99.90;;;;;;4929104;29;20730;-74
2023/03/25 02:36:18;;;;;;;15.95;4.10;;;8.00;99.90;;;;;;4916222;29;20059;-74
2023/03/25 02:38:48;;;;;;;18.67;4.40;;;8.10;99.90;;;;;;4902142;29;20151;-74
2023/03/25 02:41:25;;;;;;;13.55;4.32;;;8.00;99.90;;;;;;4911089;29;20437;-74
2023/03/25 02:44:01;;;;;;;14.50;3.72;;;8.10;99.90;;;;;;4922004;29;20051;-74
2023/03/25 02:46:28;;;;;;;18.38;4.07;;;8.10;99.90;;;;;;4934918;29;20078;-74
2023/03/25 02:48:58;;;;;;;12.38;3.78;;;8.10;99.90;;;;;;4925551;29;20091;-74
2023/03/25 02:51:29;;;;;;;13.13;4.05;;;8.00;99.90;;;;;;4919775;29;20047;-74
2023/03/25 02:53:57;;;;;;;15.57;4.18;;;8.10;99.90;;;;;;4916971;29;20574;-74
2023/03/25 02:56:25;;;;;;;10.55;3.75;;;8.10;99.90;;;;;;4925339;29;20047;-74
2023/03/25 02:58:54;;;;;;;13.73;4.38;;;8.10;99.90;;;;;;4920500;29;20075;-74
2023/03/25 03:01:25;;;;;;;12.43;3.67;;;8.10;99.90;;;;;;4903795;29;20036;-74
2023/03/25 03:03:55;;;;;;;15.68;4.35;;;8.10;99.90;;;;;;4917451;29;20051;-75
2023/03/25 03:06:23;;;;;;;13.98;3.85;;;8.10;99.90;;;;;;4921749;29;20488;-75
2023/03/25 03:08:49;;;;;;;15.50;4.07;;;8.10;99.90;;;;;;4921448;29;20075;-75
2023/03/25 03:11:28;;;;;;;15.13;4.20;;;8.10;99.90;;;;;;4906853;29;20071;-75
2023/03/25 03:14:20;;;;;;;14.15;3.38;;;8.10;99.90;;;;;;4920241;29;20043;-75
2023/03/25 03:17:11;;;;;;;11.70;3.78;;;8.10;99.90;;;;;;4934954;29;20074;-75
2023/03/25 03:20:04;;;;;;;13.05;4.13;;;8.10;99.90;;;;;;4954618;29;20043;-74
2023/03/25 03:22:41;;;;;;;13.38;4.15;;;8.20;99.90;;;;;;4908424;29;20043;-74
2023/03/25 03:25:18;;;;;;;12.63;3.70;;;8.20;99.90;;;;;;4930541;29;20050;-74
2023/03/25 03:28:05;;;;;;;12.50;4.00;;;8.20;99.90;;;;;;4919423;29;20050;-74
2023/03/25 03:30:38;;;;;;;12.07;3.47;;;8.20;99.90;;;;;;4913101;29;20047;-74
2023/03/25 03:33:30;;;;;;;13.98;3.85;;;8.20;99.90;;;;;;4890399;29;20039;-74
2023/03/25 03:36:09;;;;;;;11.43;3.30;;;8.20;99.90;;;;;;4942241;29;20043;-74
2023/03/25 03:38:40;;;;;;;11.98;4.18;;;8.20;99.90;;;;;;4919250;29;20051;-74
2023/03/25 03:41:11;;;;;;;14.40;4.07;;;8.30;99.90;;;;;;4928189;29;20506;-74
2023/03/25 03:43:54;;;;;;;10.90;3.95;;;8.30;99.90;;;;;;4921240;29;20043;-74
2023/03/25 03:46:26;;;;;;;14.45;4.05;;;8.20;99.90;;;;;;4914497;29;20186;-74
2023/03/25 03:48:55;;;;;;;11.75;4.10;;;8.20;99.90;;;;;;4922170;29;20051;-74
2023/03/25 03:51:34;;;;;;;12.00;4.18;;;8.20;99.90;;;;;;4904816;29;20507;-74
2023/03/25 03:54:02;;;;;;;12.80;4.47;;;8.20;99.90;;;;;;4917563;29;20502;-74
2023/03/25 03:56:37;;;;;;;11.75;4.28;;;8.20;99.90;;;;;;4918973;29;20043;-75
2023/03/25 03:59:28;;;;;;;14.63;4.70;;;8.20;99.90;;;;;;4918902;29;20052;-75
2023/03/25 04:02:02;;;;;;;15.85;4.72;;;8.20;99.90;;;;;;4918422;29;20051;-75
2023/03/25 04:04:27;;;;;;;16.30;4.60;;;8.20;99.90;;;;;;4917848;29;20054;-75
2023/03/25 04:07:18;;;;;;;15.52;4.53;;;8.20;99.90;;;;;;4905349;29;20039;-75
2023/03/25 04:10:05;;;;;;;16.25;5.03;;;8.20;99.90;;;;;;4918681;29;20077;-75
2023/03/25 04:12:34;;;;;;;16.42;4.30;;;8.30;99.90;;;;;;4902426;29;20587;-75
2023/03/25 04:15:02;;;;;;;13.88;4.75;;;8.30;99.90;;;;;;4908894;29;20043;-75
2023/03/25 04:17:28;;;;;;;16.05;4.10;;;8.30;99.90;;;;;;4933078;29;20114;-75
2023/03/25 04:19:55;;;;;;;12.07;3.85;;;8.20;99.90;;;;;;4953479;29;20047;-75
2023/03/25 04:22:21;;;;;;;13.05;4.28;;;8.30;99.90;;;;;;4921728;29;20107;-75
2023/03/25 04:24:50;;;;;;;16.48;4.45;;;8.20;99.90;;;;;;4918544;29;20039;-75
2023/03/25 04:27:21;;;;;;;13.88;4.40;;;8.30;99.90;;;;;;4902757;29;20402;-75
2023/03/25 04:29:48;;;;;;;15.13;4.60;;;8.20;99.90;;;;;;4902590;29;20040;-75
2023/03/25 04:32:15;;;;;;;17.63;4.85;;;8.20;99.90;;;;;;4899375;29;20043;-75
2023/03/25 04:34:41;;;;;;;11.73;4.20;;;8.20;99.90;;;;;;4924174;29;20039;-75
2023/03/25 04:37:06;;;;;;;13.80;4.15;;;8.20;99.90;;;;;;4929927;29;20478;-75
2023/03/25 04:39:32;;;;;;;14.52;4.18;;;8.10;99.90;;;;;;4942878;29;20494;-75
2023/03/25 04:42:02;;;;;;;11.00;4.32;;;8.10;99.90;;;;;;4916676;29;20036;-75
2023/03/25 04:44:32;;;;;;;13.50;4.57;;;8.10;99.90;;;;;;4923853;29;20066;-75
2023/03/25 04:46:59;;;;;;;15.40;4.25;;;8.00;99.90;;;;;;4922159;29;20510;-75
2023/03/25 04:49:25;;;;;;;12.77;4.10;;;8.00;99.90;;;;;;4918013;29;20043;-75
2023/03/25 04:51:52;;;;;;;14.52;4.68;;;8.00;99.90;;;;;;4915309;29;20048;-75
2023/03/25 04:54:19;;;;;;;12.27;4.68;;;8.00;99.90;;;;;;4916993;29;20047;-74
2023/03/25 04:56:46;;;;;;;11.23;4.10;;;8.00;99.90;;;;;;4913293;29;20035;-75
2023/03/25 04:59:12;;;;;;;14.82;4.30;;;8.00;99.90;;;;;;4937215;29;20102;-75
2023/03/25 05:01:41;;;;;;;16.88;5.40;;;7.90;99.90;;;;;;4926401;29;20047;-75
2023/03/25 05:04:11;;;;;;;11.80;4.78;;;7.90;99.90;;;;;;4909314;29;20040;-75
2023/03/25 05:06:39;;;;;;;11.40;4.43;;;7.90;99.90;;;;;;4907144;29;20478;-75
2023/03/25 05:09:07;;;;;;;13.05;4.60;;;8.00;99.90;;;;;;4949413;29;20078;-75
2023/03/25 05:11:35;;;;;;;19.75;5.68;;;8.00;99.90;;;;;;4908297;29;20036;-75
2023/03/25 05:14:02;;;;;;;16.77;5.25;;;8.00;99.90;;;;;;4909422;29;20050;-75
2023/03/25 05:16:28;;;;;;;17.25;5.93;;;7.90;99.90;;;;;;4925258;29;20487;-75
2023/03/25 05:18:53;;;;;;;16.17;5.30;;;7.90;99.90;;;;;;4917791;29;20040;-74
2023/03/25 05:21:19;;;;;;;16.02;5.50;;;7.90;99.90;;;;;;4917679;29;20044;-75
2023/03/25 05:23:44;;;;;;;16.00;5.85;;;7.80;99.90;;;;;;4917888;29;20050;-75
2023/03/25 05:26:12;;;;;;;14.63;5.88;;;7.80;99.90;;;;;;4918219;29;20402;-75
2023/03/25 05:28:38;;;;;;;12.07;4.80;;;7.70;99.90;;;;;;4933169;29;20070;-75
2023/03/25 05:31:07;;;;;;;15.35;4.50;;;7.70;99.90;;;;;;4945999;28;20148;-75
2023/03/25 05:33:35;;;;;;;14.10;5.35;;;7.70;99.90;;;;;;4900137;29;20043;-74
2023/03/25 05:36:03;;;;;;;14.55;5.88;;;7.70;99.90;;;;;;4917122;29;20126;-75
2023/03/25 05:38:28;;;;;;;11.93;5.60;;;7.70;99.90;;;;;;4915949;29;20043;-74
2023/03/25 05:40:55;;;;;;;17.20;6.05;;;7.70;99.90;;;;;;4917290;29;20054;-74
2023/03/25 05:43:21;;;;;;;16.63;5.90;;;7.70;99.90;;;;;;4916426;29;20043;-75
2023/03/25 05:45:47;;;;;;;19.58;6.35;;;7.70;99.90;;;;;;4924743;29;20386;-75
2023/03/25 05:48:13;;;;;;;16.70;6.35;;;7.70;99.90;;;;;;4917231;29;20043;-75
2023/03/25 05:50:41;;;;;;;21.20;7.35;;;7.70;99.90;;;;;;4916956;29;20044;-75
2023/03/25 05:53:11;;;;;;;14.63;5.40;;;7.70;99.90;;;;;;4908664;29;20562;-75
2023/03/25 05:55:37;;;;;;;14.75;5.40;;;7.80;99.90;;;;;;4924601;29;20491;-75
2023/03/25 05:58:03;;;;;;;16.33;5.60;;;7.80;99.90;;;;;;4952095;29;20093;-74
2023/03/25 06:00:29;;;;;;;16.05;4.57;;;7.80;99.90;;;;;;4936002;29;20122;-75
2023/03/25 06:02:57;;;;;;;12.88;4.72;;;7.80;99.90;;;;;;4932496;29;20127;-74
2023/03/25 06:05:24;;;;;;;12.63;3.85;;;7.80;99.90;;;;;;4910972;29;20495;-75
2023/03/25 06:07:54;;;;;;;16.08;4.15;;;7.80;99.90;;;;;;4916819;29;20047;-74
2023/03/25 06:10:21;;;;;;;10.43;3.15;;;7.80;99.90;;;;;;4901263;29;20051;-74
2023/03/25 06:12:49;;;;;;;13.18;4.00;;;7.90;99.90;;;;;;4904001;29;20044;-75
2023/03/25 06:15:32;;;;;;;13.23;3.63;;;7.90;99.90;;;;;;4920469;29;20055;-75
2023/03/25 06:17:58;;;;;;;14.07;3.65;;;7.90;99.90;;;;;;4912461;29;20032;-74
2023/03/25 06:20:25;;;;;;;14.57;3.80;;;7.80;99.90;;;;;;4952137;29;20505;-75
2023/03/25 06:22:50;;;;;;;14.43;3.72;;;7.90;99.90;;;;;;4933868;29;20043;-74
2023/03/25 06:25:19;;;;;;;13.63;3.22;;;7.80;99.90;;;;;;4919218;29;20043;-74
2023/03/25 06:27:47;;;;;;;12.68;3.53;;;7.80;99.90;;;;;;4920446;29;20178;-74
2023/03/25 06:30:18;;;;;;;14.05;3.63;;;7.80;99.90;;;;;;4935654;29;20047;-75
2023/03/25 06:32:43;;;;;;;12.75;3.20;;;7.80;99.90;;;;;;4933777;28;20115;-75
2023/03/25 06:35:10;;;;;;;13.07;3.45;;;7.80;99.90;;;;;;4920697;29;20114;-74
2023/03/25 06:37:37;;;;;;;13.57;4.32;;;7.80;99.90;;;;;;4911982;29;20046;-75
2023/03/25 06:40:04;;;;;;;15.90;3.78;;;7.90;99.90;;;;;;4923360;29;20043;-75
2023/03/25 06:42:30;;;;;;;16.80;4.15;;;7.90;99.90;;;;;;4919264;29;20051;-74
2023/03/25 06:44:56;;;;;;;16.52;4.60;;;8.00;99.90;;;;;;4920376;29;20367;-75
2023/03/25 06:47:22;;;;;;;12.88;3.90;;;8.20;99.90;;;;;;4947082;29;20047;-75
2023/03/25 06:49:48;;;;;;;15.02;4.40;;;8.40;99.90;;;;;;4923372;29;20051;-75
2023/03/25 06:52:14;;;;;;;16.17;4.72;;;8.40;99.90;;;;;;4905014;29;20047;-74
2023/03/25 06:54:40;;;;;;;14.10;4.90;;;8.50;99.90;;;;;;4915742;29;20439;-75
2023/03/25 06:57:06;;;;;;;19.73;5.13;;;8.70;99.90;;;;;;4923878;29;20394;-75
2023/03/25 06:59:32;;;;;;;14.48;4.20;;;8.90;99.90;;;;;;4952103;29;21470;-75
2023/03/25 07:01:58;;;;;;;17.33;5.13;;;9.00;99.90;;;;;;4907332;29;20042;-75
2023/03/25 07:04:24;;;;;;;17.88;5.03;;;9.20;99.90;;;;;;4936770;29;20043;-74
2023/03/25 07:06:49;;;;;;;19.38;4.88;;;9.20;99.90;;;;;;4920250;29;20040;-74
2023/03/25 07:09:15;;;;;;;21.42;5.47;;;9.20;99.90;;;;;;4907765;29;20044;-75
2023/03/25 07:11:41;;;;;;;16.45;4.45;;;9.10;99.90;;;;;;4903592;29;20040;-76
2023/03/25 07:14:06;;;;;;;14.73;4.70;;;9.10;99.90;;;;;;4906342;29;20554;-76
2023/03/25 07:16:32;;;;;;;21.90;5.03;;;8.90;99.90;;;;;;4911375;29;20040;-75
2023/03/25 07:18:58;;;;;;;22.63;4.68;;;8.90;99.90;;;;;;4934867;29;20130;-75
2023/03/25 07:21:24;;;;;;;20.80;4.82;;;8.70;99.90;;;;;;4906022;29;20044;-76
2023/03/25 07:23:50;;;;;;;24.95;4.65;;;8.60;99.90;;;;;;4917049;29;20123;-75
2023/03/25 07:26:16;;;;;;;18.85;4.28;;;8.50;99.90;;;;;;4928932;29;20461;-75
2023/03/25 07:28:42;;;;;;;19.55;4.45;;;8.50;99.90;;;;;;4946473;29;20039;-75
2023/03/25 07:31:09;;;;;;;17.45;4.10;;;8.50;99.90;;;;;;4921131;29;20407;-75
2023/03/25 07:33:35;;;;;;;20.85;3.80;;;8.40;99.90;;;;;;4923089;29;20601;-75
2023/03/25 07:36:01;;;;;;;21.60;4.75;;;8.40;99.90;;;;;;4927760;29;20483;-75
2023/03/25 07:38:27;;;;;;;17.02;4.43;;;8.30;99.90;;;;;;4918855;29;20040;-76
2023/03/25 07:40:53;;;;;;;17.00;4.47;;;8.30;99.90;;;;;;4916562;29;20050;-75
2023/03/25 07:43:18;;;;;;;23.75;5.22;;;8.20;99.90;;;;;;4907839;29;20043;-75
2023/03/25 07:45:44;;;;;;;21.27;4.38;;;8.20;99.90;;;;;;4930168;29;20032;-75
2023/03/25 07:48:13;;;;;;;21.63;4.65;;;8.20;99.90;;;;;;4954041;29;20039;-74
2023/03/25 07:50:39;;;;;;;24.75;4.88;;;8.30;99.90;;;;;;4927266;28;20055;-75
2023/03/25 07:53:05;;;;;;;24.25;4.63;;;8.50;99.90;;;;;;4923620;29;20039;-75
2023/03/25 07:55:31;;;;;;;18.40;4.47;;;8.50;99.90;;;;;;4915318;29;20426;-75
2023/03/25 07:57:57;;;;;;;18.88;4.93;;;8.50;99.90;;;;;;4915658;29;20110;-75
2023/03/25 08:00:23;;;;;;;23.42;4.65;;;8.50;99.90;;;;;;4897960;29;20380;-75
2023/03/25 08:02:49;;;;;;;18.30;4.07;;;8.60;99.90;;;;;;4919564;29;20088;-76
2023/03/25 08:05:20;;;;;;;18.05;3.63;;;8.70;99.90;;;;;;4918919;29;20062;-74
2023/03/25 08:07:46;;;;;;;14.43;3.53;;;8.70;99.90;;;;;;4898541;29;20566;-75
2023/03/25 08:10:14;;;;;;;15.02;3.40;;;8.80;99.90;;;;;;4917175;29;20047;-75
2023/03/25 08:12:40;;;;;;;14.45;3.17;;;8.70;99.90;;;;;;4934216;29;20542;-75
2023/03/25 08:15:06;;;;;;;16.65;3.85;;;8.60;99.90;;;;;;4953847;29;20061;-75
2023/03/25 08:17:32;;;;;;;19.65;4.35;;;8.60;99.90;;;;;;4902773;29;20099;-75
2023/03/25 08:19:59;;;;;;;17.27;3.42;;;8.60;99.90;;;;;;4891759;29;20050;-74
2023/03/25 08:22:26;;;;;;;15.35;3.53;;;8.60;99.90;;;;;;4886250;29;20075;-74
2023/03/25 08:24:52;;;;;;;15.60;3.92;;;8.60;99.90;;;;;;4913413;29;20075;-75
2023/03/25 08:27:17;;;;;;;20.00;4.03;;;8.50;99.90;;;;;;4910742;29;20032;-75
2023/03/25 08:29:44;;;;;;;19.17;4.13;;;8.50;99.90;;;;;;4913199;29;20146;-77
2023/03/25 08:32:09;;;;;;;20.42;4.60;;;8.50;99.90;;;;;;4905058;29;20098;-75
2023/03/25 08:34:38;;;;;;;17.60;3.72;;;8.50;99.90;;;;;;4924193;29;20040;-75
2023/03/25 08:37:06;;;;;;;21.65;4.60;;;8.50;99.90;;;;;;4897983;29;20098;-75
2023/03/25 08:39:38;;;;;;;19.88;4.15;;;8.40;99.90;;;;;;4912717;29;20066;-76
2023/03/25 08:42:07;;;;;;;15.90;3.90;;;8.50;99.90;;;;;;4936699;29;20078;-75
2023/03/25 08:44:32;;;;;;;19.23;4.20;;;8.60;99.90;;;;;;4953109;29;20043;-75
2023/03/25 08:46:58;;;;;;;21.52;4.53;;;8.70;99.90;;;;;;4944200;29;20410;-75
2023/03/25 08:49:23;;;;;;;19.95;5.18;;;8.80;99.90;;;;;;4906772;29;20051;-76
2023/03/25 08:51:49;;;;;;;23.02;4.65;;;8.90;99.90;;;;;;4898738;29;20044;-76
2023/03/25 08:54:15;;;;;;;20.65;4.63;;;8.90;99.90;;;;;;4899119;29;20039;-76
2023/03/25 08:56:40;;;;;;;21.63;4.15;;;8.90;99.90;;;;;;4898578;29;20107;-75
2023/03/25 08:59:06;;;;;;;13.25;4.38;;;9.00;99.90;;;;;;4906685;29;20106;-75
2023/03/25 09:01:31;;;;;;;20.38;4.13;;;9.00;99.90;;;;;;4898158;29;20051;-76
2023/03/25 09:03:57;;;;;;;17.75;4.30;;;9.10;99.90;;;;;;4898890;29;20040;-76
2023/03/25 09:06:23;;;;;;;20.85;4.70;;;9.30;99.90;;;;;;4898797;29;20044;-75
2023/03/25 09:08:48;;;;;;;16.75;3.28;;;9.50;99.90;;;;;;4906627;29;20111;-76
2023/03/25 09:11:15;;;;;;;17.27;4.00;;;9.60;99.90;;;;;;4898599;29;20054;-76
2023/03/25 09:13:41;;;;;;;16.25;4.07;;;9.60;99.90;;;;;;4883386;29;20481;-76
2023/03/25 09:16:07;;;;;;;14.02;3.33;;;9.60;99.90;;;;;;4898741;29;20043;-75
2023/03/25 09:18:35;;;;;;;19.13;3.72;;;9.50;99.90;;;;;;4904016;29;20550;-76
2023/03/25 09:21:01;;;;;;;13.88;3.42;;;9.40;99.90;;;;;;4906545;29;20048;-76
2023/03/25 09:23:27;;;;;;;14.65;3.72;;;9.30;99.90;;;;;;4883691;29;20079;-76
2023/03/25 09:25:53;;;;;;;17.10;3.67;;;9.10;99.90;;;;;;4909097;29;20071;-76
2023/03/25 09:28:19;;;;;;;12.73;3.08;;;9.00;99.90;;;;;;4918053;29;20491;-76
2023/03/25 09:30:45;;;;;;;14.05;4.22;;;9.00;99.90;;;;;;4917333;29;20135;-76
2023/03/25 09:33:11;;;;;;;15.70;3.50;;;9.00;99.90;;;;;;4912385;29;20072;-76
2023/03/25 09:35:39;;;;;;;18.60;4.50;;;9.00;99.90;;;;;;4890566;29;20047;-76
2023/03/25 09:38:04;;;;;;;12.48;3.25;;;9.10;99.90;;;;;;4898610;29;20099;-76
2023/03/25 09:40:30;;;;;;;11.70;3.30;;;9.20;99.90;;;;;;4898280;29;20448;-76
2023/03/25 09:43:03;;;;;;;18.00;3.42;;;9.30;99.90;;;;;;4902930;29;20129;-76
2023/03/25 09:45:34;;;;;;;14.32;3.83;;;9.30;99.90;;;;;;4892647;29;20052;-76
2023/03/25 09:48:13;;;;;;;10.65;2.95;;;9.30;99.90;;;;;;4908780;29;20573;-75
2023/03/25 09:50:41;;;;;;;17.10;3.40;;;9.40;99.90;;;;;;4894815;29;20103;-76
2023/03/25 09:53:30;;;;;;;15.05;2.83;;;9.40;99.90;;;;;;4909417;29;20042;-76
2023/03/25 09:55:56;;;;;;;13.55;3.28;;;9.40;99.90;;;;;;4901686;29;20079;-76
2023/03/25 09:58:49;;;;;;;15.52;3.55;;;9.30;99.90;;;;;;4915148;29;20081;-76
2023/03/25 10:01:18;;;;;;;13.02;3.78;;;9.20;99.90;;;;;;4892604;29;20515;-76
2023/03/25 10:03:56;;;;;;;13.85;3.42;;;9.20;99.90;;;;;;4901769;29;20422;-76
2023/03/25 10:06:25;;;;;;;12.60;3.17;;;9.20;99.90;;;;;;4917614;29;20403;-76
2023/03/25 10:09:12;;;;;;;16.10;3.10;;;9.30;99.90;;;;;;4917619;29;20050;-75
2023/03/25 10:12:03;;;;;;;11.82;2.97;;;9.40;99.90;;;;;;4897565;29;20036;-75
2023/03/25 10:14:36;;;;;;;16.15;3.05;;;9.50;99.90;;;;;;4924449;29;20091;-72
2023/03/25 10:17:01;;;;;;;17.02;3.15;;;9.60;99.90;;;;;;4908511;29;20506;-73
2023/03/25 10:20:00;;;;;;;11.18;2.65;;;9.60;99.90;;;;;;4909737;29;20119;-75
2023/03/25 10:22:58;;;;;;;11.65;2.70;;;9.60;99.90;;;;;;4901733;29;20123;-73
2023/03/25 10:25:28;;;;;;;13.43;3.00;;;9.70;99.90;;;;;;4909208;29;20414;-73
2023/03/25 10:27:56;;;;;;;18.42;2.67;;;9.90;99.90;;;;;;4911680;29;20051;-72
2023/03/25 10:30:22;;;;;;;10.93;2.85;;;10.10;99.90;;;;;;4914235;29;20052;-74
2023/03/25 10:33:00;;;;;;;13.82;3.20;;;10.20;99.90;;;;;;4918133;29;20044;-74
2023/03/25 10:35:41;;;;;;;12.77;3.00;;;10.20;99.90;;;;;;4913743;29;20043;-74
2023/03/25 10:38:17;;;;;;;13.30;3.08;;;10.30;99.90;;;;;;4919822;29;20517;-74
2023/03/25 10:40:48;;;;;;;12.00;2.72;;;10.50;99.90;;;;;;4932907;29;20422;-74
2023/03/25 10:43:34;;;;;;;13.77;3.60;;;10.70;99.90;;;;;;4885579;29;20051;-74
2023/03/25 10:46:28;;;;;;;12.88;3.00;;;10.70;99.90;;;;;;4924947;29;20043;-74
2023/03/25 10:48:54;;;;;;;13.43;2.72;;;10.70;99.90;;;;;;4929101;29;20048;-73
2023/03/25 10:51:29;;;;;;;13.77;2.50;;;10.50;99.90;;;;;;4939126;29;20038;-75
2023/03/25 10:53:56;;;;;;;13.25;2.97;;;10.40;99.90;;;;;;4900690;29;20122;-74
2023/03/25 10:56:26;;;;;;;11.90;3.08;;;10.50;99.90;;;;;;4926154;29;20510;-74
2023/03/25 10:58:57;;;;;;;18.30;3.15;;;10.60;99.90;;;;;;4905841;29;20075;-74
2023/03/25 11:01:42;;;;;;;14.77;4.05;;;10.60;99.90;;;;;;4930558;29;20036;-74
2023/03/25 11:04:13;;;;;;;13.35;3.25;;;10.70;99.90;;;;;;4909896;29;20399;-74
2023/03/25 11:06:44;;;;;;;15.85;3.35;;;10.70;99.90;;;;;;4926257;29;20043;-74
2023/03/25 11:09:31;;;;;;;13.40;3.22;;;10.70;99.90;;;;;;4938776;29;20090;-74
2023/03/25 11:12:01;;;;;;;14.60;3.47;;;10.80;99.90;;;;;;4912162;29;20398;-76
2023/03/25 11:14:28;;;;;;;11.63;2.70;;;10.80;99.90;;;;;;4933565;29;20498;-76
2023/03/25 11:17:03;;;;;;;12.35;2.72;;;10.90;99.90;;;;;;4926328;29;20048;-74
2023/03/25 11:19:43;;;;;;;13.05;2.70;;;10.90;99.90;;;;;;4918892;29;20048;-74
2023/03/25 11:22:27;;;;;;;12.10;2.90;;;11.00;99.90;;;;;;4920169;29;20051;-75
2023/03/25 11:25:05;;;;;;;9.82;2.38;;;11.20;99.90;;;;;;4917300;29;20039;-74
2023/03/25 11:27:41;;;;;;;9.95;2.88;;;11.40;99.90;;;;;;4911825;29;20127;-74
2023/03/25 11:30:16;;;;;;;11.30;2.50;;;11.70;99.90;;;;;;4933060;29;21197;-74
2023/03/25 11:32:41;;;;;;;11.15;2.70;;;11.70;99.90;;;;;;4923669;29;20122;-75
2023/03/25 11:35:22;;;;;;;11.88;2.40;;;11.60;99.90;;;;;;4919129;29;20134;-74
2023/03/25 11:37:55;;;;;;;9.98;2.53;;;11.60;99.90;;;;;;4946287;29;20039;-74
2023/03/25 11:40:21;;;;;;;12.82;2.88;;;11.50;99.90;;;;;;4947732;29;20110;-74
2023/03/25 11:43:08;;;;;;;9.95;2.47;;;11.40;99.90;;;;;;4917881;29;20407;-74
2023/03/25 11:45:37;;;;;;;13.25;2.67;;;11.20;99.90;;;;;;4933115;29;20057;-74
2023/03/25 11:48:14;;;;;;;10.90;2.65;;;11.20;99.90;;;;;;4933471;29;20053;-74
2023/03/25 11:50:52;;;;;;;10.52;2.83;;;11.70;99.90;;;;;;4917265;29;20610;-74
2023/03/25 11:53:20;;;;;;;8.60;2.33;;;12.20;99.90;;;;;;4924464;29;20052;-74
2023/03/25 11:55:50;;;;;;;14.73;2.80;;;12.60;99.90;;;;;;4911108;29;20098;-74
2023/03/25 11:58:21;;;;;;;11.63;2.67;;;12.70;99.90;;;;;;4918906;29;20048;-74
2023/03/25 12:00:49;;;;;;;14.73;3.20;;;12.30;99.90;;;;;;4918599;29;20048;-74
2023/03/25 12:03:21;;;;;;;9.90;2.38;;;12.00;99.90;;;;;;4923052;29;20102;-74
2023/03/25 12:06:15;;;;;;;14.75;3.05;;;11.60;99.90;;;;;;4910990;29;20048;-74
2023/03/25 12:09:11;;;;;;;12.23;2.47;;;11.50;99.90;;;;;;4919151;29;20178;-74
2023/03/25 12:11:45;;;;;;;15.45;3.50;;;11.50;99.90;;;;;;4915663;29;20048;-74
2023/03/25 12:14:33;;;;;;;12.95;2.72;;;11.70;99.90;;;;;;4899670;29;20334;-75
2023/03/25 12:17:01;;;;;;;14.52;3.75;;;11.80;99.90;;;;;;4908041;29;20063;-74
2023/03/25 12:19:33;;;;;;;12.90;2.55;;;11.80;99.90;;;;;;4909806;29;20047;-74
2023/03/25 12:22:24;;;;;;;10.82;3.13;;;11.90;99.90;;;;;;4920668;29;20056;-74
2023/03/25 12:25:30;;;;;;;10.30;2.40;;;11.90;99.90;;;;;;4937459;29;20043;-74
2023/03/25 12:28:10;;;;;;;8.38;3.15;;;11.60;99.90;;;;;;4893672;29;20616;-75
2023/03/25 12:30:57;;;;;;;12.77;2.55;;;11.40;99.90;;;;;;4914289;29;20131;-74
2023/03/25 12:33:29;;;;;;;14.38;2.83;;;11.50;99.90;;;;;;4916192;29;20035;-75
2023/03/25 12:36:17;;;;;;;10.27;2.35;;;11.30;99.90;;;;;;4928334;29;20047;-74
2023/03/25 12:39:08;;;;;;;8.60;2.45;;;11.40;99.90;;;;;;4917674;29;20095;-74
2023/03/25 12:41:48;;;;;;;13.77;2.65;;;12.30;99.90;;;;;;4925648;29;20042;-74
2023/03/25 12:44:14;;;;;;;12.88;2.58;;;12.50;99.90;;;;;;4895253;29;20044;-74
2023/03/25 12:47:18;;;;;;;12.63;2.83;;;12.60;99.90;;;;;;4921257;29;20039;-74
2023/03/25 12:50:02;;;;;;;10.35;2.78;;;13.20;99.90;;;;;;4929222;29;20466;-74
2023/03/25 12:52:37;;;;;;;11.30;2.85;;;13.00;99.90;;;;;;4913895;29;20102;-75
2023/03/25 12:55:11;;;;;;;13.48;2.80;;;12.60;99.90;;;;;;4910962;29;20534;-75
2023/03/25 12:57:54;;;;;;;9.57;2.72;;;12.40;99.90;;;;;;4895945;29;20392;-75
2023/03/25 13:00:37;;;;;;;10.63;2.78;;;12.10;99.90;;;;;;4918449;29;20039;-75
2023/03/25 13:03:26;;;;;;;15.98;2.92;;;11.90;99.90;;;;;;4924745;29;20081;-76
2023/03/25 13:06:03;;;;;;;10.00;2.30;;;11.90;99.90;;;;;;4908153;29;20070;-75